createdAt,value
2019-04-05T00:02:43.467Z,6.63
2019-04-05T00:12:47.197Z,8.23
2019-04-05T00:22:51.180Z,8.73
2019-04-05T00:32:54.411Z,8.23
2019-04-05T00:42:57.935Z,6.90
2019-04-05T00:53:01.166Z,7.90
2019-04-05T01:03:04.545Z,7.77
2019-04-05T01:13:07.953Z,7.33
2019-04-05T01:23:11.918Z,7.43
2019-04-05T01:33:15.505Z,8.17
2019-04-05T01:43:19.088Z,7.50
2019-04-05T01:53:22.755Z,7.20
2019-04-05T02:03:25.964Z,7.53
2019-04-05T02:13:28.988Z,7.27
2019-04-05T02:23:32.027Z,7.97
2019-04-05T02:33:35.065Z,8.47
2019-04-05T02:43:38.503Z,7.07
2019-04-05T02:53:42.263Z,7.60
2019-04-05T03:03:45.749Z,7.43
2019-04-05T03:13:53.353Z,7.00
2019-04-05T03:23:56.851Z,7.13
2019-04-05T03:34:01.076Z,7.87
2019-04-05T03:44:04.245Z,7.63
2019-04-05T03:54:07.622Z,8.43
2019-04-05T04:04:10.690Z,9.17
2019-04-05T04:14:13.971Z,8.80
2019-04-05T04:24:16.965Z,7.67
2019-04-05T04:34:20.561Z,8.80
2019-04-05T04:44:23.648Z,9.17
2019-04-05T04:54:26.880Z,9.87
2019-04-05T05:04:29.890Z,8.10
2019-04-05T05:14:33.293Z,8.53
2019-04-05T05:24:36.589Z,9.33
2019-04-05T05:34:39.574Z,11.80
2019-04-05T05:44:42.719Z,10.77
2019-04-05T05:54:45.868Z,11.13
2019-04-05T06:04:48.914Z,10.23
2019-04-05T06:14:51.911Z,9.77
2019-04-05T06:24:54.888Z,10.63
2019-04-05T06:34:59.121Z,11.30
2019-04-05T06:45:03.177Z,9.67
2019-04-05T06:55:06.320Z,10.17
2019-04-05T07:05:09.289Z,9.87
2019-04-05T07:15:13.201Z,8.87
2019-04-05T07:25:16.145Z,10.70
2019-04-05T07:35:18.971Z,8.53
2019-04-05T07:45:21.996Z,8.77
2019-04-05T07:55:24.982Z,8.87
2019-04-05T08:05:29.646Z,10.10
2019-04-05T08:15:32.712Z,11.50
2019-04-05T08:25:40.958Z,9.90
2019-04-05T08:35:43.146Z,11.83
2019-04-05T08:45:46.325Z,10.53
2019-04-05T08:55:51.285Z,10.70
2019-04-05T09:05:54.879Z,10.13
2019-04-05T09:15:58.212Z,10.83
2019-04-05T09:26:01.362Z,10.03
2019-04-05T09:36:04.858Z,10.03
2019-04-05T09:46:08.189Z,10.60
2019-04-05T09:56:12.133Z,10.83
2019-04-05T10:06:15.385Z,10.13
2019-04-05T10:16:18.887Z,9.03
2019-04-05T10:26:22.075Z,8.40
2019-04-05T10:36:25.416Z,7.80
2019-04-05T10:46:28.913Z,9.30
2019-04-05T10:56:32.298Z,6.93
2019-04-05T11:06:35.658Z,7.63
2019-04-05T11:16:38.962Z,7.63
2019-04-05T11:26:42.133Z,6.90
2019-04-05T11:36:45.486Z,5.90
2019-04-05T11:46:50.181Z,6.80
2019-04-05T11:56:53.273Z,5.83
2019-04-05T12:06:56.679Z,6.70
2019-04-05T12:16:59.745Z,6.43
2019-04-05T12:27:04.845Z,5.80
2019-04-05T12:37:08.293Z,6.33
2019-04-05T12:47:13.969Z,5.87
2019-04-05T12:57:16.863Z,6.50
2019-04-05T13:07:20.723Z,6.50
2019-04-05T13:17:25.522Z,7.07
2019-04-05T13:27:28.654Z,6.80
2019-04-05T13:37:31.899Z,6.43
2019-04-05T13:47:37.919Z,6.33
2019-04-05T13:57:40.991Z,6.53
2019-04-05T14:07:44.660Z,6.97
2019-04-05T14:17:49.399Z,7.13
2019-04-05T14:27:52.752Z,6.67
2019-04-05T14:37:56.909Z,8.27
2019-04-05T14:48:00.036Z,8.47
2019-04-05T14:58:03.358Z,7.90
2019-04-05T15:08:08.351Z,7.10
2019-04-05T15:18:11.938Z,8.03
2019-04-05T15:28:15.560Z,7.13
2019-04-05T15:38:20.101Z,8.13
2019-04-05T15:48:23.569Z,7.33
2019-04-05T15:58:27.747Z,9.27
2019-04-05T16:08:31.146Z,7.90
2019-04-05T16:18:34.366Z,7.23
2019-04-05T16:28:40.884Z,7.53
2019-04-05T16:38:43.626Z,7.37
2019-04-05T16:48:46.853Z,7.30
2019-04-05T16:58:49.918Z,9.57
2019-04-05T17:08:53.344Z,8.37
2019-04-05T17:18:56.462Z,8.40
2019-04-05T17:29:00.649Z,8.80
2019-04-05T17:39:05.283Z,8.93
2019-04-05T17:49:08.471Z,10.47
2019-04-05T17:59:11.495Z,9.60
2019-04-05T18:09:14.484Z,8.43
2019-04-05T18:19:17.478Z,8.87
2019-04-05T18:29:27.977Z,9.57
2019-04-05T18:39:34.618Z,10.87
2019-04-05T18:49:37.490Z,10.10
2019-04-05T18:59:41.327Z,10.73
2019-04-05T19:09:44.489Z,10.13
2019-04-05T19:19:48.234Z,11.07
2019-04-05T19:29:51.968Z,9.47
2019-04-05T19:49:59.834Z,9.47
2019-04-05T20:00:03.817Z,8.70
2019-04-05T20:10:07.046Z,9.50
2019-04-05T20:20:10.087Z,10.10
2019-04-05T20:30:13.050Z,8.57
2019-04-05T20:40:15.986Z,9.83
2019-04-05T20:50:21.686Z,9.10
2019-04-05T21:00:25.090Z,11.17
2019-04-05T21:10:35.867Z,11.50
2019-04-05T21:20:40.927Z,10.73
2019-04-05T21:30:43.866Z,11.27
2019-04-05T21:40:46.864Z,11.60
2019-04-05T21:50:49.919Z,13.47
2019-04-05T22:01:01.178Z,12.07
2019-04-05T22:11:05.907Z,11.77
2019-04-05T22:21:08.857Z,13.83
2019-04-05T22:31:11.877Z,13.23
2019-04-05T22:41:14.891Z,13.13
2019-04-05T22:51:17.970Z,12.20
2019-04-05T23:01:20.781Z,10.73
2019-04-05T23:11:23.771Z,11.80
2019-04-05T23:21:26.771Z,10.87
2019-04-05T23:31:29.760Z,7.30
2019-04-05T23:41:32.642Z,7.50
2019-04-05T23:51:35.768Z,5.93
